74V

Roosevelt Municipal Airport

Roosevelt, Utah, USA
METAR K74V 140135Z AUTO 00000KT 10SM CLR M05/M11 A3047 RMK AO2
Observed Flight Rules
Dec-14 @ 01:35 UTC (12 minutes ago) Visual Flight Rules
Visibility Clouds
10 miles
  • Clear skies
Temperatures Readings
Current -5°C / 23°F
Dewpoint -11°C / 12°F
Humidity 63%
Altimeter 30.47" Hg
Pressure 1032 hPa
Elevation 1576
METAR K74V 140135Z AUTO 00000KT 10SM CLR M05/M11 A3047 RMK AO2
Observed Flight Rules
Dec-14 @ 01:35 UTC
(12 minutes ago)
VFR
Clouds
  • Clear skies
Temperature Dewpoint
-5°C / 23°F -11°C / 12°F
Humidity Altimeter Pressure
63% 30.47" Hg 1032 hPa